Terminal Aerodrome Forecast
Issued by NWS Los Angeles, CA

Home | Current Version | Previous Version | Text Only | Print | Product List | Glossary On
Versions: 1 2 3 4 5 6 7 8 9 10 11 12 13 14 15 16 17 18 19 20 21 22 23
000
FTUS46 KLOX 212300
TAFSMX
TAF
KSMX 212331Z 2200/2224 31013KT P6SM SKC
     FM220300 32007KT P6SM SKC
     FM220500 VRB03KT 3SM BR OVC003
     FM221000 VRB03KT 1/2SM FG VV001
     FM221400 VRB03KT 3SM BR OVC003
     FM221600 VRB03KT P6SM SKC
     FM221900 30010KT P6SM SKC=

USA.gov is the U.S. government's official web portal to all federal, state and local government web resources and services.